Time;durP1;ratioP1;P1;durP2;ratioP2;P2;SDS_P1;SDS_P2;PMS_P1;PMS_P2;Temp;Humidity;BMP_temperature;BMP_pressure;BME280_temperature;BME280_humidity;BME280_pressure;Samples;Min_cycle;Max_cycle;Signal;HPM_P1;HPM_P2
2021/01/24 00:00:50;;;;;;;12.93;7.90;;;;;;;;;;5053790;28;20055;-77
2021/01/24 00:03:17;;;;;;;12.88;8.35;;;;;;;;;;5053936;28;20092;-76
2021/01/24 00:05:44;;;;;;;11.52;8.32;;;;;;;;;;5051518;28;20052;-78
2021/01/24 00:08:11;;;;;;;11.88;8.23;;;;;;;;;;5053852;28;20025;-78
2021/01/24 00:10:37;;;;;;;13.02;8.25;;;;;;;;;;5052274;28;20697;-78
2021/01/24 00:13:03;;;;;;;12.70;7.32;;;;;;;;;;5053776;28;20016;-78
2021/01/24 00:15:29;;;;;;;11.77;7.82;;;;;;;;;;5053318;28;20533;-77
2021/01/24 00:17:55;;;;;;;14.50;8.25;;;;;;;;;;5053620;28;20025;-76
2021/01/24 00:20:21;;;;;;;12.23;8.15;;;;;;;;;;5052223;28;20056;-78
2021/01/24 00:22:47;;;;;;;13.48;9.02;;;;;;;;;;5053417;28;20025;-78
2021/01/24 00:25:14;;;;;;;11.93;7.95;;;;;;;;;;5053358;28;20024;-78
2021/01/24 00:27:40;;;;;;;11.63;8.10;;;;;;;;;;5053186;28;20099;-78
2021/01/24 00:30:07;;;;;;;13.45;8.07;;;;;;;;;;5051941;28;20472;-74
2021/01/24 00:32:33;;;;;;;13.27;7.43;;;;;;;;;;5053422;28;20036;-77
2021/01/24 00:34:59;;;;;;;11.35;7.97;;;;;;;;;;5053039;28;20580;-77
2021/01/24 00:37:25;;;;;;;12.68;8.38;;;;;;;;;;5052135;28;20409;-75
2021/01/24 00:39:51;;;;;;;13.05;8.35;;;;;;;;;;5053127;28;20032;-77
2021/01/24 00:42:17;;;;;;;13.60;8.10;;;;;;;;;;5053067;28;20036;-78
2021/01/24 00:44:43;;;;;;;14.02;7.85;;;;;;;;;;5052962;28;20025;-77
2021/01/24 00:47:10;;;;;;;12.90;8.20;;;;;;;;;;5052843;28;20044;-78
2021/01/24 00:49:36;;;;;;;13.57;7.75;;;;;;;;;;5052848;28;20032;-78
2021/01/24 00:52:02;;;;;;;12.13;8.27;;;;;;;;;;5052839;28;20029;-78
2021/01/24 00:54:28;;;;;;;11.27;7.97;;;;;;;;;;5052771;28;20029;-78
2021/01/24 00:56:54;;;;;;;13.18;8.52;;;;;;;;;;5053120;28;20174;-78
2021/01/24 00:59:20;;;;;;;13.02;8.88;;;;;;;;;;5052637;28;20021;-78
2021/01/24 01:01:47;;;;;;;13.20;8.00;;;;;;;;;;5052678;28;20017;-75
2021/01/24 01:04:13;;;;;;;12.98;8.13;;;;;;;;;;5052299;28;20033;-77
2021/01/24 01:06:39;;;;;;;12.70;8.05;;;;;;;;;;5052393;28;20550;-78
2021/01/24 01:09:05;;;;;;;15.45;9.23;;;;;;;;;;5052394;28;20029;-75
2021/01/24 01:11:31;;;;;;;11.95;8.10;;;;;;;;;;5052567;28;20025;-78
2021/01/24 01:13:57;;;;;;;11.68;7.80;;;;;;;;;;5052364;28;20021;-78
2021/01/24 01:16:23;;;;;;;11.82;7.95;;;;;;;;;;5052067;28;20040;-77
2021/01/24 01:18:49;;;;;;;12.63;7.60;;;;;;;;;;5052128;28;20113;-78
2021/01/24 01:21:15;;;;;;;12.25;7.68;;;;;;;;;;5052381;28;20396;-78
2021/01/24 01:23:41;;;;;;;11.75;7.65;;;;;;;;;;5050922;28;20388;-78
2021/01/24 01:26:07;;;;;;;11.60;7.80;;;;;;;;;;5050941;28;20484;-79
2021/01/24 01:28:33;;;;;;;11.95;7.68;;;;;;;;;;5052239;28;20025;-78
2021/01/24 01:30:59;;;;;;;11.63;7.95;;;;;;;;;;5051999;28;20031;-77
2021/01/24 01:33:25;;;;;;;12.85;8.52;;;;;;;;;;5050820;28;20021;-78
2021/01/24 01:35:51;;;;;;;11.63;7.68;;;;;;;;;;5052079;28;20037;-79
2021/01/24 01:38:17;;;;;;;11.77;8.32;;;;;;;;;;5051931;28;20048;-78
2021/01/24 01:40:43;;;;;;;12.70;8.40;;;;;;;;;;5051995;28;20100;-78
2021/01/24 01:43:09;;;;;;;11.82;7.70;;;;;;;;;;5051902;28;20028;-78
2021/01/24 01:45:35;;;;;;;11.63;7.93;;;;;;;;;;5050328;28;20048;-78
2021/01/24 01:48:02;;;;;;;12.38;8.13;;;;;;;;;;5050589;28;20021;-78
2021/01/24 01:50:28;;;;;;;11.32;7.57;;;;;;;;;;5051718;28;20099;-76
2021/01/24 01:52:54;;;;;;;13.18;7.78;;;;;;;;;;5051812;28;20121;-79
2021/01/24 01:55:20;;;;;;;12.85;8.00;;;;;;;;;;5051753;28;20194;-78
2021/01/24 01:57:46;;;;;;;11.13;7.22;;;;;;;;;;5051704;28;20021;-78
2021/01/24 02:00:12;;;;;;;11.63;7.72;;;;;;;;;;5051772;28;20033;-79
2021/01/24 02:03:07;;;;;;;12.70;7.82;;;;;;;;;;5051496;28;20357;-78
2021/01/24 02:05:33;;;;;;;13.55;7.72;;;;;;;;;;5046382;28;20033;-76
2021/01/24 02:08:03;;;;;;;10.40;7.00;;;;;;;;;;5051572;28;20028;-77
2021/01/24 02:10:32;;;;;;;10.75;7.80;;;;;;;;;;5050236;28;20021;-78
2021/01/24 02:13:01;;;;;;;11.25;7.22;;;;;;;;;;5049988;28;20024;-78
2021/01/24 02:15:28;;;;;;;14.82;7.38;;;;;;;;;;5051493;28;20041;-78
2021/01/24 02:18:00;;;;;;;10.70;7.15;;;;;;;;;;5051550;28;20041;-78
2021/01/24 02:20:29;;;;;;;12.73;8.05;;;;;;;;;;5050270;28;20543;-78
2021/01/24 02:22:55;;;;;;;10.52;7.55;;;;;;;;;;5050083;28;20040;-77
2021/01/24 02:25:31;;;;;;;11.98;8.20;;;;;;;;;;5049942;28;20017;-77
2021/01/24 02:28:07;;;;;;;10.63;7.30;;;;;;;;;;5052590;28;20407;-79
2021/01/24 02:30:34;;;;;;;10.40;7.25;;;;;;;;;;5054910;28;20029;-79
2021/01/24 02:33:10;;;;;;;11.02;6.85;;;;;;;;;;5054158;28;20049;-77
2021/01/24 02:35:38;;;;;;;10.60;7.22;;;;;;;;;;5055543;28;20037;-79
2021/01/24 02:38:05;;;;;;;10.77;7.13;;;;;;;;;;5055304;28;20021;-77
2021/01/24 02:40:33;;;;;;;13.65;7.70;;;;;;;;;;5055082;28;20024;-78
2021/01/24 02:43:00;;;;;;;13.35;8.23;;;;;;;;;;5055555;28;20025;-78
2021/01/24 02:45:26;;;;;;;11.13;7.82;;;;;;;;;;5055092;28;20056;-78
2021/01/24 02:47:52;;;;;;;11.63;7.22;;;;;;;;;;5055278;28;20020;-78
2021/01/24 02:50:19;;;;;;;12.07;7.20;;;;;;;;;;5055196;28;20048;-78
2021/01/24 02:52:46;;;;;;;11.32;7.32;;;;;;;;;;5053975;28;20120;-77
2021/01/24 02:55:14;;;;;;;11.85;8.07;;;;;;;;;;5055099;28;20484;-77
2021/01/24 02:57:40;;;;;;;11.23;7.55;;;;;;;;;;5054942;28;20033;-78
2021/01/24 03:00:08;;;;;;;11.73;8.18;;;;;;;;;;5054870;28;20052;-78
2021/01/24 03:02:34;;;;;;;12.57;8.20;;;;;;;;;;5054920;28;20484;-76
2021/01/24 03:05:00;;;;;;;13.35;8.68;;;;;;;;;;5055023;28;20384;-78
2021/01/24 03:07:27;;;;;;;12.07;8.10;;;;;;;;;;5054892;28;20017;-78
2021/01/24 03:09:53;;;;;;;12.32;8.60;;;;;;;;;;5053506;28;20119;-77
2021/01/24 03:12:19;;;;;;;12.55;7.68;;;;;;;;;;5054773;28;20031;-77
2021/01/24 03:14:46;;;;;;;13.63;8.77;;;;;;;;;;5054773;28;20040;-78
2021/01/24 03:17:14;;;;;;;14.15;8.93;;;;;;;;;;5053466;28;20407;-78
2021/01/24 03:19:41;;;;;;;13.30;9.27;;;;;;;;;;5053110;28;20036;-78
2021/01/24 03:22:07;;;;;;;12.57;8.70;;;;;;;;;;5053013;28;20032;-78
2021/01/24 03:24:34;;;;;;;11.88;8.50;;;;;;;;;;5052986;28;20025;-77
2021/01/24 03:27:00;;;;;;;12.35;8.88;;;;;;;;;;5053120;28;20040;-78
2021/01/24 03:29:26;;;;;;;11.85;8.38;;;;;;;;;;5053123;28;20021;-76
2021/01/24 03:31:52;;;;;;;12.73;8.70;;;;;;;;;;5054484;28;20051;-77
2021/01/24 03:34:18;;;;;;;14.10;9.63;;;;;;;;;;5054288;28;20028;-76
2021/01/24 03:36:45;;;;;;;13.13;9.23;;;;;;;;;;5053188;28;20021;-78
2021/01/24 03:39:11;;;;;;;12.88;8.68;;;;;;;;;;5054151;28;20109;-78
2021/01/24 03:41:37;;;;;;;14.10;8.55;;;;;;;;;;5053855;28;20396;-77
2021/01/24 03:44:03;;;;;;;14.02;9.20;;;;;;;;;;5054417;28;20096;-78
2021/01/24 03:46:30;;;;;;;12.38;9.00;;;;;;;;;;5054008;28;20041;-79
2021/01/24 03:48:56;;;;;;;12.15;8.68;;;;;;;;;;5052749;28;20025;-78
2021/01/24 03:51:22;;;;;;;13.45;8.70;;;;;;;;;;5054076;28;20135;-76
2021/01/24 03:53:48;;;;;;;12.52;8.80;;;;;;;;;;5053990;28;20029;-77
2021/01/24 03:56:14;;;;;;;12.90;8.35;;;;;;;;;;5053954;28;20044;-78
2021/01/24 03:58:40;;;;;;;13.02;8.93;;;;;;;;;;5054152;28;20490;-76
2021/01/24 04:01:06;;;;;;;12.38;8.60;;;;;;;;;;5053911;28;20025;-78
2021/01/24 04:03:32;;;;;;;13.93;8.38;;;;;;;;;;5053860;28;20025;-78
2021/01/24 04:05:58;;;;;;;13.00;8.90;;;;;;;;;;5052553;28;20120;-78
2021/01/24 04:08:24;;;;;;;12.13;8.48;;;;;;;;;;5052367;28;20024;-79
2021/01/24 04:10:51;;;;;;;12.18;8.30;;;;;;;;;;5053830;28;20082;-78
2021/01/24 04:13:17;;;;;;;12.88;8.82;;;;;;;;;;5053987;28;20071;-78
2021/01/24 04:15:43;;;;;;;12.82;8.25;;;;;;;;;;5052323;28;20043;-78
2021/01/24 04:18:09;;;;;;;11.20;8.20;;;;;;;;;;5053671;28;20029;-79
2021/01/24 04:20:35;;;;;;;12.65;8.60;;;;;;;;;;5052142;28;20013;-74
2021/01/24 04:23:01;;;;;;;12.48;8.40;;;;;;;;;;5052271;28;20179;-75
2021/01/24 04:25:27;;;;;;;11.77;8.52;;;;;;;;;;5053652;28;20033;-75
2021/01/24 04:27:53;;;;;;;14.00;9.13;;;;;;;;;;5053385;28;20021;-78
2021/01/24 04:30:19;;;;;;;13.88;9.07;;;;;;;;;;5053284;28;20032;-78
2021/01/24 04:32:45;;;;;;;12.82;7.90;;;;;;;;;;5052065;28;20044;-78
2021/01/24 04:35:12;;;;;;;11.50;8.00;;;;;;;;;;5053206;28;20034;-77
2021/01/24 04:37:38;;;;;;;12.13;8.57;;;;;;;;;;5052023;28;20032;-79
2021/01/24 04:40:04;;;;;;;12.55;7.80;;;;;;;;;;5053102;28;20013;-78
2021/01/24 04:42:30;;;;;;;14.18;8.35;;;;;;;;;;5051624;28;20029;-77
2021/01/24 04:44:57;;;;;;;11.73;8.15;;;;;;;;;;5052712;28;20021;-78
2021/01/24 04:47:24;;;;;;;11.68;7.70;;;;;;;;;;5052849;28;20032;-78
2021/01/24 04:49:51;;;;;;;12.30;8.27;;;;;;;;;;5051623;28;20055;-78
2021/01/24 04:52:17;;;;;;;11.95;7.75;;;;;;;;;;5050928;28;20452;-78
2021/01/24 04:54:44;;;;;;;12.07;7.78;;;;;;;;;;5052831;28;20065;-78
2021/01/24 04:57:10;;;;;;;11.68;8.70;;;;;;;;;;5051835;28;20025;-74
2021/01/24 04:59:36;;;;;;;13.00;8.10;;;;;;;;;;5052659;28;20025;-78
2021/01/24 05:02:02;;;;;;;11.98;7.80;;;;;;;;;;5051669;28;20021;-78
2021/01/24 05:04:29;;;;;;;14.52;9.20;;;;;;;;;;5051415;28;20021;-78
2021/01/24 05:06:55;;;;;;;11.23;7.90;;;;;;;;;;5051281;28;20675;-78
2021/01/24 05:09:21;;;;;;;11.23;7.32;;;;;;;;;;5052587;28;20592;-78
2021/01/24 05:11:52;;;;;;;11.63;7.82;;;;;;;;;;5052533;28;20025;-78
2021/01/24 05:14:19;;;;;;;11.00;7.35;;;;;;;;;;5052434;28;20032;-76
2021/01/24 05:16:47;;;;;;;12.20;7.57;;;;;;;;;;5052438;28;20025;-77
2021/01/24 05:19:14;;;;;;;10.70;7.55;;;;;;;;;;5052395;28;20529;-77
2021/01/24 05:21:40;;;;;;;13.07;7.82;;;;;;;;;;5051271;28;20026;-77
2021/01/24 05:24:10;;;;;;;13.55;7.78;;;;;;;;;;5051037;28;20021;-78
2021/01/24 05:26:37;;;;;;;10.13;6.57;;;;;;;;;;5051025;28;20025;-78
2021/01/24 05:29:04;;;;;;;11.07;7.28;;;;;;;;;;5052372;28;20029;-77
2021/01/24 05:31:30;;;;;;;10.95;6.80;;;;;;;;;;5050810;28;20107;-77
2021/01/24 05:33:57;;;;;;;11.48;7.10;;;;;;;;;;5050810;28;20025;-78
2021/01/24 05:36:24;;;;;;;11.15;7.00;;;;;;;;;;5052089;28;20033;-78
2021/01/24 05:38:52;;;;;;;10.38;6.57;;;;;;;;;;5052401;28;20022;-75
2021/01/24 05:41:18;;;;;;;10.18;6.53;;;;;;;;;;5052082;28;20066;-78
2021/01/24 05:43:45;;;;;;;12.80;7.15;;;;;;;;;;5050773;28;20086;-77
2021/01/24 05:46:12;;;;;;;9.30;5.80;;;;;;;;;;5051816;28;20055;-78
2021/01/24 05:48:46;;;;;;;9.35;5.80;;;;;;;;;;5051865;28;20486;-78
2021/01/24 05:51:14;;;;;;;11.50;5.45;;;;;;;;;;5050702;28;20029;-78
2021/01/24 05:53:48;;;;;;;8.52;5.43;;;;;;;;;;5051806;28;20028;-77
2021/01/24 05:56:18;;;;;;;9.68;5.57;;;;;;;;;;5051726;28;20029;-78
2021/01/24 05:58:45;;;;;;;10.07;5.78;;;;;;;;;;5050477;28;20024;-78
2021/01/24 06:01:11;;;;;;;9.55;5.47;;;;;;;;;;5051738;28;20021;-77
2021/01/24 06:03:37;;;;;;;9.18;5.55;;;;;;;;;;5051989;28;20102;-79
2021/01/24 06:06:04;;;;;;;9.15;5.13;;;;;;;;;;5051688;28;20070;-77
2021/01/24 06:08:30;;;;;;;8.65;4.95;;;;;;;;;;5050265;28;20036;-78
2021/01/24 06:10:58;;;;;;;9.23;5.18;;;;;;;;;;5051927;28;20461;-78
2021/01/24 06:13:28;;;;;;;7.97;4.90;;;;;;;;;;5050319;28;20400;-77
2021/01/24 06:15:55;;;;;;;7.32;4.47;;;;;;;;;;5050141;28;20094;-75
2021/01/24 06:18:24;;;;;;;7.53;4.90;;;;;;;;;;5051555;28;20413;-78
2021/01/24 06:20:53;;;;;;;8.07;4.35;;;;;;;;;;5051694;28;20100;-78
2021/01/24 06:23:19;;;;;;;7.53;4.25;;;;;;;;;;5051602;28;20025;-77
2021/01/24 06:25:48;;;;;;;10.80;4.80;;;;;;;;;;5051426;28;20056;-78
2021/01/24 06:28:18;;;;;;;9.07;4.78;;;;;;;;;;5050078;28;20032;-77
2021/01/24 06:30:44;;;;;;;9.50;4.20;;;;;;;;;;5051536;28;20465;-75
2021/01/24 06:33:18;;;;;;;7.75;4.10;;;;;;;;;;5051382;28;20056;-77
2021/01/24 06:35:48;;;;;;;8.32;4.75;;;;;;;;;;5051318;28;20191;-78
2021/01/24 06:38:27;;;;;;;6.85;4.20;;;;;;;;;;5051259;28;20029;-78
2021/01/24 06:40:53;;;;;;;7.85;4.80;;;;;;;;;;5050000;28;20369;-76
2021/01/24 06:43:38;;;;;;;6.90;4.18;;;;;;;;;;5051046;28;20017;-78
2021/01/24 06:46:19;;;;;;;7.88;3.97;;;;;;;;;;5049736;28;20053;-78
2021/01/24 06:48:45;;;;;;;7.43;4.13;;;;;;;;;;5051250;28;20036;-76
2021/01/24 06:51:30;;;;;;;6.47;3.90;;;;;;;;;;5051240;28;20044;-78
2021/01/24 06:53:56;;;;;;;7.00;4.05;;;;;;;;;;5051564;28;20028;-79
2021/01/24 06:56:22;;;;;;;7.45;4.10;;;;;;;;;;5051096;28;20037;-76
2021/01/24 06:58:49;;;;;;;6.47;4.00;;;;;;;;;;5051005;28;20028;-78
2021/01/24 07:01:24;;;;;;;7.10;3.65;;;;;;;;;;5051026;28;20567;-77
2021/01/24 07:04:09;;;;;;;6.28;3.60;;;;;;;;;;5051117;28;20021;-77
2021/01/24 07:06:35;;;;;;;6.88;3.65;;;;;;;;;;5051116;28;20017;-78
2021/01/24 07:09:21;;;;;;;5.97;3.50;;;;;;;;;;5051170;28;20032;-78
2021/01/24 07:12:01;;;;;;;6.68;3.45;;;;;;;;;;5049770;28;20472;-78
2021/01/24 07:14:36;;;;;;;5.70;3.28;;;;;;;;;;5050932;28;20128;-78
2021/01/24 07:17:09;;;;;;;5.95;3.42;;;;;;;;;;5053441;28;20048;-78
2021/01/24 07:19:55;;;;;;;6.93;3.30;;;;;;;;;;5053469;28;20172;-78
2021/01/24 07:22:22;;;;;;;7.60;3.65;;;;;;;;;;5054577;28;20480;-78
2021/01/24 07:24:49;;;;;;;5.28;2.97;;;;;;;;;;5053245;28;20025;-78
2021/01/24 07:27:16;;;;;;;7.68;3.67;;;;;;;;;;5054628;28;20522;-77
2021/01/24 07:29:43;;;;;;;6.55;3.10;;;;;;;;;;5054520;28;20026;-78
2021/01/24 07:32:10;;;;;;;6.75;3.72;;;;;;;;;;5053203;28;20120;-77
2021/01/24 07:34:36;;;;;;;6.35;3.28;;;;;;;;;;5053176;28;20032;-77
2021/01/24 07:37:04;;;;;;;6.18;3.40;;;;;;;;;;5053111;28;20086;-78
2021/01/24 07:39:30;;;;;;;5.60;3.17;;;;;;;;;;5054213;28;20047;-78
2021/01/24 07:41:57;;;;;;;6.10;3.33;;;;;;;;;;5054391;28;20021;-77
2021/01/24 07:44:23;;;;;;;7.13;3.60;;;;;;;;;;5054324;28;20100;-77
2021/01/24 07:46:49;;;;;;;6.90;3.33;;;;;;;;;;5052702;28;20561;-76
2021/01/24 07:49:15;;;;;;;7.25;3.38;;;;;;;;;;5052690;28;20087;-77
2021/01/24 07:51:42;;;;;;;7.43;3.83;;;;;;;;;;5053946;28;20029;-77
2021/01/24 07:54:09;;;;;;;8.80;4.35;;;;;;;;;;5052497;28;20025;-77
2021/01/24 07:56:35;;;;;;;5.85;3.53;;;;;;;;;;5053741;28;20069;-77
2021/01/24 07:59:01;;;;;;;6.10;3.72;;;;;;;;;;5053673;28;20047;-76
2021/01/24 08:01:27;;;;;;;7.00;3.58;;;;;;;;;;5052507;28;20361;-78
2021/01/24 08:03:53;;;;;;;5.85;3.80;;;;;;;;;;5052586;28;20017;-78
2021/01/24 08:06:19;;;;;;;7.65;4.22;;;;;;;;;;5053914;28;20483;-78
2021/01/24 08:08:46;;;;;;;6.97;4.25;;;;;;;;;;5053762;28;20021;-78
2021/01/24 08:11:13;;;;;;;6.30;3.78;;;;;;;;;;5053754;28;20028;-79
2021/01/24 08:13:39;;;;;;;6.07;3.70;;;;;;;;;;5053700;28;20131;-77
2021/01/24 08:16:11;;;;;;;6.65;4.00;;;;;;;;;;5053470;28;20041;-77
2021/01/24 08:18:38;;;;;;;9.50;4.35;;;;;;;;;;5053476;28;20021;-77
2021/01/24 08:21:04;;;;;;;5.50;3.13;;;;;;;;;;5053474;28;20067;-78
2021/01/24 08:23:30;;;;;;;5.20;3.22;;;;;;;;;;5052028;28;20044;-78
2021/01/24 08:25:57;;;;;;;6.95;3.25;;;;;;;;;;5051607;28;20166;-77
2021/01/24 08:28:24;;;;;;;6.50;3.95;;;;;;;;;;5052802;28;20074;-79
2021/01/24 08:30:50;;;;;;;6.22;3.67;;;;;;;;;;5052059;28;20586;-79
2021/01/24 08:33:18;;;;;;;6.00;3.83;;;;;;;;;;5052101;28;20067;-77
2021/01/24 08:35:44;;;;;;;7.22;4.32;;;;;;;;;;5052004;28;20036;-76
2021/01/24 08:38:12;;;;;;;7.32;4.07;;;;;;;;;;5053332;28;20021;-78
2021/01/24 08:40:39;;;;;;;6.88;4.13;;;;;;;;;;5053202;28;20052;-78
2021/01/24 08:43:05;;;;;;;5.88;3.90;;;;;;;;;;5051835;28;20021;-78
2021/01/24 08:45:32;;;;;;;5.78;3.70;;;;;;;;;;5052793;28;20076;-78
2021/01/24 08:48:00;;;;;;;6.35;4.18;;;;;;;;;;5051716;28;20021;-78
2021/01/24 08:50:32;;;;;;;6.10;3.70;;;;;;;;;;5052868;28;20024;-78
2021/01/24 08:52:59;;;;;;;5.53;3.13;;;;;;;;;;5051503;28;20095;-78
2021/01/24 08:55:26;;;;;;;5.97;3.60;;;;;;;;;;5052700;28;20036;-77
2021/01/24 08:57:52;;;;;;;5.75;3.67;;;;;;;;;;5052007;28;20029;-78
2021/01/24 09:00:19;;;;;;;6.38;3.55;;;;;;;;;;5052932;28;20025;-77
2021/01/24 09:02:45;;;;;;;5.40;2.97;;;;;;;;;;5051818;28;20029;-78
2021/01/24 09:05:15;;;;;;;4.45;2.72;;;;;;;;;;5051850;28;20040;-78
2021/01/24 09:07:45;;;;;;;5.20;2.90;;;;;;;;;;5051790;28;20412;-77
2021/01/24 09:10:16;;;;;;;4.07;2.35;;;;;;;;;;5052633;28;20017;-78
2021/01/24 09:12:43;;;;;;;5.03;2.90;;;;;;;;;;5051490;28;20032;-79
2021/01/24 09:15:09;;;;;;;5.18;3.05;;;;;;;;;;5052541;28;20171;-78
2021/01/24 09:17:36;;;;;;;3.83;2.05;;;;;;;;;;5051150;28;20021;-76
2021/01/24 09:20:02;;;;;;;3.95;2.30;;;;;;;;;;5052315;28;20032;-78
2021/01/24 09:22:28;;;;;;;3.67;2.00;;;;;;;;;;5052366;28;20522;-77
2021/01/24 09:24:54;;;;;;;3.65;2.10;;;;;;;;;;5052402;28;20100;-78
2021/01/24 09:27:20;;;;;;;4.13;2.15;;;;;;;;;;5052376;28;20067;-79
2021/01/24 09:29:46;;;;;;;4.85;2.35;;;;;;;;;;5052260;28;20071;-75
2021/01/24 09:32:12;;;;;;;4.65;2.30;;;;;;;;;;5052171;28;20028;-78
2021/01/24 09:34:39;;;;;;;4.43;1.80;;;;;;;;;;5052000;28;20048;-77
2021/01/24 09:37:05;;;;;;;3.25;1.80;;;;;;;;;;5050598;28;20498;-79
2021/01/24 09:39:31;;;;;;;3.47;2.00;;;;;;;;;;5050391;28;20031;-78
2021/01/24 09:41:57;;;;;;;3.22;1.85;;;;;;;;;;5052008;28;20028;-78
2021/01/24 09:44:23;;;;;;;3.53;1.90;;;;;;;;;;5051931;28;20103;-78
2021/01/24 09:46:49;;;;;;;3.97;1.92;;;;;;;;;;5051928;28;20045;-79
2021/01/24 09:49:16;;;;;;;2.92;1.55;;;;;;;;;;5050668;28;20484;-78
2021/01/24 09:51:42;;;;;;;3.05;1.50;;;;;;;;;;5051915;28;20025;-78
2021/01/24 09:54:08;;;;;;;4.13;1.80;;;;;;;;;;5050566;28;20024;-77
2021/01/24 09:56:34;;;;;;;2.92;1.60;;;;;;;;;;5052051;28;20051;-78
2021/01/24 09:59:00;;;;;;;2.20;1.30;;;;;;;;;;5050532;28;20028;-77
2021/01/24 10:01:26;;;;;;;3.47;1.50;;;;;;;;;;5051753;28;20395;-78
2021/01/24 10:03:53;;;;;;;2.10;1.17;;;;;;;;;;5051826;28;20018;-77
2021/01/24 10:06:20;;;;;;;1.88;1.02;;;;;;;;;;5051707;28;20100;-77
2021/01/24 10:08:46;;;;;;;2.95;1.35;;;;;;;;;;5051592;28;20032;-77
2021/01/24 10:11:12;;;;;;;2.45;1.20;;;;;;;;;;5051667;28;20021;-77
2021/01/24 10:13:39;;;;;;;2.30;1.15;;;;;;;;;;5051488;28;20028;-77
2021/01/24 10:16:06;;;;;;;3.00;1.52;;;;;;;;;;5051389;28;20041;-78
2021/01/24 10:18:32;;;;;;;2.10;1.10;;;;;;;;;;5051314;28;20025;-78
2021/01/24 10:20:58;;;;;;;2.47;1.23;;;;;;;;;;5051252;28;20128;-75
2021/01/24 10:23:25;;;;;;;2.42;1.23;;;;;;;;;;5050052;28;20024;-77
2021/01/24 10:25:52;;;;;;;2.33;1.30;;;;;;;;;;5051202;28;20028;-78
2021/01/24 10:28:18;;;;;;;2.35;1.25;;;;;;;;;;5051333;28;20082;-75
2021/01/24 10:30:45;;;;;;;2.13;1.23;;;;;;;;;;5051507;28;20033;-77
2021/01/24 10:33:12;;;;;;;1.63;1.08;;;;;;;;;;5051442;28;20024;-77
2021/01/24 10:35:38;;;;;;;2.30;1.20;;;;;;;;;;5049916;28;20064;-78
2021/01/24 10:38:04;;;;;;;2.45;1.20;;;;;;;;;;5051206;28;20024;-77
2021/01/24 10:40:30;;;;;;;2.20;1.30;;;;;;;;;;5051063;28;20029;-78
2021/01/24 10:42:57;;;;;;;2.20;1.10;;;;;;;;;;5051092;28;20598;-77
2021/01/24 10:45:23;;;;;;;1.98;0.98;;;;;;;;;;5051063;28;20073;-77
2021/01/24 10:47:49;;;;;;;1.83;1.00;;;;;;;;;;5051275;28;20108;-77
2021/01/24 10:50:15;;;;;;;2.10;1.10;;;;;;;;;;5052480;28;20025;-77
2021/01/24 10:52:41;;;;;;;2.20;1.20;;;;;;;;;;5055360;28;20029;-77
2021/01/24 10:55:08;;;;;;;1.60;1.00;;;;;;;;;;5053936;28;20120;-78
2021/01/24 10:57:34;;;;;;;2.22;1.10;;;;;;;;;;5053801;28;20151;-76
2021/01/24 11:00:00;;;;;;;2.75;1.13;;;;;;;;;;5055093;28;20025;-78
2021/01/24 11:02:26;;;;;;;2.47;1.20;;;;;;;;;;5055058;28;20492;-76
2021/01/24 11:04:52;;;;;;;2.42;1.08;;;;;;;;;;5054969;28;20032;-77
2021/01/24 11:07:18;;;;;;;1.88;1.00;;;;;;;;;;5053766;28;20025;-77
2021/01/24 11:09:45;;;;;;;2.05;0.82;;;;;;;;;;5054942;28;20017;-78
2021/01/24 11:12:11;;;;;;;1.02;0.70;;;;;;;;;;5053688;28;20059;-77
2021/01/24 11:14:37;;;;;;;1.65;0.90;;;;;;;;;;5054678;28;20017;-75
2021/01/24 11:17:04;;;;;;;2.22;1.00;;;;;;;;;;5053379;28;20404;-77
2021/01/24 11:19:30;;;;;;;1.10;0.70;;;;;;;;;;5054557;28;20024;-79
2021/01/24 11:21:56;;;;;;;3.85;1.00;;;;;;;;;;5053089;28;20025;-79
2021/01/24 11:24:22;;;;;;;1.25;0.80;;;;;;;;;;5053224;28;20068;-78
2021/01/24 11:26:48;;;;;;;1.50;0.90;;;;;;;;;;5054507;28;20021;-75
2021/01/24 11:29:14;;;;;;;1.85;0.90;;;;;;;;;;5054578;28;20048;-76
2021/01/24 11:31:40;;;;;;;1.83;0.95;;;;;;;;;;5054561;28;20017;-78
2021/01/24 11:34:06;;;;;;;1.73;0.90;;;;;;;;;;5054373;28;20035;-79
2021/01/24 11:36:32;;;;;;;1.67;0.90;;;;;;;;;;5054303;28;20041;-79
2021/01/24 11:38:58;;;;;;;2.85;1.02;;;;;;;;;;5053073;28;20028;-78
2021/01/24 11:41:24;;;;;;;2.08;0.77;;;;;;;;;;5053143;28;20112;-78
2021/01/24 11:43:51;;;;;;;1.48;0.90;;;;;;;;;;5054166;28;20017;-78
2021/01/24 11:46:17;;;;;;;1.20;0.82;;;;;;;;;;5054130;28;20126;-78
2021/01/24 11:48:43;;;;;;;2.17;1.00;;;;;;;;;;5053034;28;20025;-77
2021/01/24 11:51:09;;;;;;;1.77;0.77;;;;;;;;;;5054440;28;20072;-78
2021/01/24 11:53:37;;;;;;;2.05;0.80;;;;;;;;;;5054155;28;20021;-76
2021/01/24 11:56:04;;;;;;;1.98;0.70;;;;;;;;;;5054016;28;20040;-78
2021/01/24 11:58:30;;;;;;;1.50;0.85;;;;;;;;;;5052623;28;20084;-78
2021/01/24 12:00:56;;;;;;;1.15;0.70;;;;;;;;;;5053821;28;20025;-78
2021/01/24 12:03:22;;;;;;;1.45;0.93;;;;;;;;;;5054039;28;20056;-77
2021/01/24 12:05:48;;;;;;;0.75;0.55;;;;;;;;;;5053991;28;20025;-78
2021/01/24 12:08:14;;;;;;;1.58;0.70;;;;;;;;;;5053880;28;20075;-75
2021/01/24 12:10:40;;;;;;;1.70;0.88;;;;;;;;;;5052517;28;20029;-75
2021/01/24 12:13:06;;;;;;;24.80;3.13;;;;;;;;;;5053321;28;20476;-75
2021/01/24 12:15:32;;;;;;;29.67;2.70;;;;;;;;;;5053385;28;20332;-78
2021/01/24 12:17:58;;;;;;;25.95;2.92;;;;;;;;;;5053057;28;20282;-79
2021/01/24 12:20:24;;;;;;;32.78;2.78;;;;;;;;;;5053406;28;20017;-78
2021/01/24 12:22:50;;;;;;;19.70;2.03;;;;;;;;;;5052045;28;20114;-78
2021/01/24 12:25:16;;;;;;;15.68;1.60;;;;;;;;;;5053357;28;20036;-78
2021/01/24 12:27:42;;;;;;;13.23;1.73;;;;;;;;;;5053242;28;20013;-78
2021/01/24 12:30:09;;;;;;;17.50;1.40;;;;;;;;;;5052037;28;20029;-79
2021/01/24 12:32:35;;;;;;;20.65;1.50;;;;;;;;;;5053438;28;20270;-78
2021/01/24 12:35:01;;;;;;;10.55;1.70;;;;;;;;;;5052956;28;20033;-79
2021/01/24 12:37:27;;;;;;;8.63;1.50;;;;;;;;;;5051978;28;20025;-78
2021/01/24 12:39:53;;;;;;;12.32;1.42;;;;;;;;;;5053149;28;20009;-79
2021/01/24 12:42:19;;;;;;;11.10;1.05;;;;;;;;;;5051934;28;20063;-78
2021/01/24 12:44:45;;;;;;;13.02;1.58;;;;;;;;;;5053298;28;20020;-79
2021/01/24 12:47:11;;;;;;;12.35;1.38;;;;;;;;;;5052967;28;20098;-79
2021/01/24 12:49:38;;;;;;;4.35;1.00;;;;;;;;;;5053058;28;20028;-79
2021/01/24 12:52:05;;;;;;;5.80;1.00;;;;;;;;;;5053098;28;20021;-79
2021/01/24 12:54:31;;;;;;;7.75;1.20;;;;;;;;;;5052972;28;20495;-79
2021/01/24 12:56:57;;;;;;;9.10;1.38;;;;;;;;;;5051488;28;20029;-78
2021/01/24 12:59:23;;;;;;;6.38;1.30;;;;;;;;;;5052918;28;20114;-75
2021/01/24 13:01:49;;;;;;;4.85;1.20;;;;;;;;;;5051673;28;20025;-79
2021/01/24 13:04:15;;;;;;;6.88;0.88;;;;;;;;;;5052742;28;20021;-79
2021/01/24 13:06:41;;;;;;;6.35;1.10;;;;;;;;;;5052682;28;20029;-79
2021/01/24 13:09:07;;;;;;;7.03;0.88;;;;;;;;;;5051436;28;20389;-78
2021/01/24 13:11:33;;;;;;;5.28;0.90;;;;;;;;;;5051219;28;20559;-76
2021/01/24 13:13:59;;;;;;;5.07;1.00;;;;;;;;;;5052356;28;20028;-79
2021/01/24 13:16:25;;;;;;;6.00;0.90;;;;;;;;;;5051174;28;20032;-78
2021/01/24 13:18:51;;;;;;;3.65;0.90;;;;;;;;;;5051010;28;20135;-78
2021/01/24 13:21:17;;;;;;;8.75;1.30;;;;;;;;;;5052332;28;20047;-78
2021/01/24 13:23:43;;;;;;;3.65;0.85;;;;;;;;;;5052341;28;20041;-79
2021/01/24 13:26:09;;;;;;;5.43;0.90;;;;;;;;;;5052410;28;20021;-79
2021/01/24 13:28:35;;;;;;;2.55;0.77;;;;;;;;;;5051060;28;20044;-78
2021/01/24 13:31:01;;;;;;;3.83;1.27;;;;;;;;;;5050995;28;20032;-76
2021/01/24 13:33:27;;;;;;;3.83;1.13;;;;;;;;;;5050975;28;20035;-79
2021/01/24 13:35:53;;;;;;;2.50;0.90;;;;;;;;;;5050708;28;20073;-79
2021/01/24 13:38:19;;;;;;;1.75;0.85;;;;;;;;;;5050666;28;20418;-79
2021/01/24 13:40:45;;;;;;;3.35;0.80;;;;;;;;;;5050768;28;20456;-79
2021/01/24 13:43:11;;;;;;;3.17;0.90;;;;;;;;;;5050712;28;20024;-79
2021/01/24 13:45:37;;;;;;;3.10;1.05;;;;;;;;;;5051657;28;20052;-78
2021/01/24 13:48:04;;;;;;;3.70;1.10;;;;;;;;;;5049896;28;20024;-79
2021/01/24 13:50:30;;;;;;;3.60;1.38;;;;;;;;;;5051064;28;20025;-80
2021/01/24 13:52:56;;;;;;;7.18;1.52;;;;;;;;;;5051148;28;20021;-78
2021/01/24 13:55:22;;;;;;;5.18;1.17;;;;;;;;;;5049610;28;20037;-77
2021/01/24 13:57:48;;;;;;;2.85;1.30;;;;;;;;;;5049718;28;20399;-79
2021/01/24 14:00:14;;;;;;;3.50;1.30;;;;;;;;;;5049549;28;20543;-79
2021/01/24 14:02:40;;;;;;;4.80;1.73;;;;;;;;;;5050722;28;20079;-79
2021/01/24 14:05:08;;;;;;;2.75;1.33;;;;;;;;;;5050817;28;20507;-79
2021/01/24 14:07:34;;;;;;;4.25;1.60;;;;;;;;;;5050658;28;20028;-79
2021/01/24 14:10:00;;;;;;;3.80;1.40;;;;;;;;;;5049594;28;20423;-78
2021/01/24 14:12:26;;;;;;;4.97;1.50;;;;;;;;;;5049606;28;20075;-79
2021/01/24 14:14:53;;;;;;;3.00;1.38;;;;;;;;;;5050779;28;20043;-79
2021/01/24 14:17:19;;;;;;;7.05;1.50;;;;;;;;;;5050756;28;20029;-79
2021/01/24 14:19:45;;;;;;;5.95;1.70;;;;;;;;;;5049571;28;20534;-79
2021/01/24 14:22:11;;;;;;;3.00;1.73;;;;;;;;;;5050655;28;20037;-81
2021/01/24 14:24:37;;;;;;;4.20;1.77;;;;;;;;;;5049463;28;20487;-79
2021/01/24 14:27:03;;;;;;;4.38;1.50;;;;;;;;;;5050536;28;20468;-78
2021/01/24 14:29:29;;;;;;;4.80;1.58;;;;;;;;;;5050482;28;20022;-78
2021/01/24 14:31:55;;;;;;;2.97;1.63;;;;;;;;;;5049523;28;20021;-80
2021/01/24 14:34:21;;;;;;;3.10;1.30;;;;;;;;;;5049289;28;20408;-80
2021/01/24 14:36:47;;;;;;;3.03;1.30;;;;;;;;;;5049073;28;20040;-79